createdAt,value
2019-05-18T00:00:43.716Z,92.29
2019-05-18T00:02:51.244Z,91.95
2019-05-18T00:04:58.720Z,92.47
2019-05-18T00:07:06.243Z,92.36
2019-05-18T00:09:13.764Z,90.79
2019-05-18T00:11:21.157Z,91.12
2019-05-18T00:13:28.745Z,91.57
2019-05-18T00:15:36.431Z,90.00
2019-05-18T00:17:43.851Z,91.13
2019-05-18T00:19:51.301Z,89.87
2019-05-18T00:21:58.714Z,88.21
2019-05-18T00:24:06.403Z,89.44
2019-05-18T00:26:13.864Z,90.54
2019-05-18T00:28:21.484Z,91.48
2019-05-18T00:30:28.975Z,92.16
2019-05-18T00:32:36.507Z,92.83
2019-05-18T00:34:43.941Z,92.39
2019-05-18T00:36:52.876Z,92.37
2019-05-18T00:39:00.263Z,92.47
2019-05-18T00:41:07.763Z,92.28
2019-05-18T00:43:15.173Z,93.10
2019-05-18T00:45:22.617Z,92.97
2019-05-18T00:47:41.009Z,93.18
2019-05-18T00:49:39.237Z,93.24
2019-05-18T00:51:46.711Z,93.10
2019-05-18T00:53:54.264Z,93.11
2019-05-18T00:56:01.798Z,93.23
2019-05-18T00:58:09.451Z,93.17
2019-05-18T01:00:17.898Z,91.72
2019-05-18T01:02:25.446Z,90.89
2019-05-18T01:04:32.872Z,90.34
2019-05-18T01:06:40.336Z,90.59
2019-05-18T01:08:48.649Z,90.02
2019-05-18T01:10:57.020Z,90.44
2019-05-18T01:13:04.476Z,90.07
2019-05-18T01:15:15.574Z,89.93
2019-05-18T01:17:23.082Z,90.99
2019-05-18T01:19:30.521Z,91.19
2019-05-18T01:21:38.076Z,89.47
2019-05-18T01:23:45.570Z,88.75
2019-05-18T01:25:53.046Z,89.26
2019-05-18T01:28:00.526Z,89.31
2019-05-18T01:30:10.258Z,89.85
2019-05-18T01:32:17.904Z,90.19
2019-05-18T01:34:25.356Z,88.71
2019-05-18T01:36:33.100Z,89.07
2019-05-18T01:38:40.687Z,88.91
2019-05-18T01:40:48.240Z,89.23
2019-05-18T01:42:55.727Z,89.11
2019-05-18T01:45:15.725Z,89.87
2019-05-18T01:47:12.411Z,89.96
2019-05-18T01:49:19.863Z,90.00
2019-05-18T01:51:27.408Z,90.72
2019-05-18T01:53:34.839Z,91.00
2019-05-18T01:55:42.262Z,90.23
2019-05-18T01:57:49.670Z,90.54
2019-05-18T01:59:57.213Z,91.37
2019-05-18T02:02:04.757Z,91.05
2019-05-18T02:04:12.224Z,90.10
2019-05-18T02:06:19.816Z,90.91
2019-05-18T02:08:27.309Z,91.57
2019-05-18T02:10:35.033Z,91.36
2019-05-18T02:12:42.491Z,90.73
2019-05-18T02:14:49.889Z,90.65
2019-05-18T02:16:57.345Z,90.48
2019-05-18T02:19:05.637Z,91.10
2019-05-18T02:21:13.117Z,90.94
2019-05-18T02:23:20.495Z,90.97
2019-05-18T02:25:27.889Z,90.35
2019-05-18T02:27:35.387Z,91.02
2019-05-18T02:29:43.980Z,90.99
2019-05-18T02:31:51.374Z,91.34
2019-05-18T02:33:58.803Z,91.68
2019-05-18T02:36:06.424Z,91.84
2019-05-18T02:38:15.833Z,92.20
2019-05-18T02:40:23.253Z,90.42
2019-05-18T02:42:31.059Z,90.88
2019-05-18T02:44:38.543Z,90.56
2019-05-18T02:46:45.960Z,91.36
2019-05-18T02:48:53.470Z,91.84
2019-05-18T02:51:00.904Z,92.47
2019-05-18T02:53:08.392Z,92.81
2019-05-18T02:55:16.057Z,92.58
2019-05-18T02:57:23.473Z,92.46
2019-05-18T02:59:31.014Z,92.66
2019-05-18T03:01:39.454Z,93.28
2019-05-18T03:03:46.994Z,93.67
2019-05-18T03:05:54.403Z,93.70
2019-05-18T03:08:01.751Z,93.06
2019-05-18T03:10:10.574Z,91.22
2019-05-18T03:12:17.961Z,91.68
2019-05-18T03:14:25.339Z,91.91
2019-05-18T03:16:32.842Z,92.46
2019-05-18T03:18:40.372Z,93.50
2019-05-18T03:20:47.908Z,93.60
2019-05-18T03:22:55.388Z,93.00
2019-05-18T03:25:02.927Z,93.70
2019-05-18T03:27:10.342Z,94.39
2019-05-18T03:29:17.890Z,94.79
2019-05-18T03:31:25.409Z,94.76
2019-05-18T03:33:32.934Z,95.33
2019-05-18T03:35:40.409Z,95.30
2019-05-18T03:37:47.834Z,93.69
2019-05-18T03:39:55.275Z,94.51
2019-05-18T03:42:02.762Z,95.14
2019-05-18T03:44:10.167Z,94.63
2019-05-18T03:46:17.571Z,94.43
2019-05-18T03:48:25.082Z,94.80
2019-05-18T03:50:32.558Z,96.13
2019-05-18T03:52:39.953Z,94.94
2019-05-18T03:54:47.388Z,95.74
2019-05-18T03:56:54.799Z,93.56
2019-05-18T03:59:02.546Z,94.61
2019-05-18T04:01:10.023Z,95.40
2019-05-18T04:03:17.463Z,94.10
2019-05-18T04:05:24.985Z,94.91
2019-05-18T04:07:32.426Z,95.32
2019-05-18T04:09:39.866Z,95.40
2019-05-18T04:11:47.240Z,94.64
2019-05-18T04:13:54.625Z,94.61
2019-05-18T04:16:02.090Z,95.68
2019-05-18T04:18:09.527Z,96.28
2019-05-18T04:20:17.016Z,96.31
2019-05-18T04:22:24.416Z,96.32
2019-05-18T04:24:31.855Z,96.12
2019-05-18T04:26:39.265Z,95.65
2019-05-18T04:28:46.813Z,95.23
2019-05-18T04:30:54.300Z,95.07
2019-05-18T04:33:01.858Z,94.59
2019-05-18T04:35:09.863Z,94.16
2019-05-18T04:37:17.333Z,93.94
2019-05-18T04:39:24.850Z,93.48
2019-05-18T04:41:32.287Z,93.49
2019-05-18T04:43:39.777Z,93.93
2019-05-18T04:45:47.291Z,93.45
2019-05-18T04:47:54.739Z,93.42
2019-05-18T04:50:05.690Z,93.44
2019-05-18T04:52:11.256Z,92.62
2019-05-18T04:54:18.723Z,93.51
2019-05-18T04:56:26.151Z,93.30
2019-05-18T04:58:33.659Z,93.36
2019-05-18T05:00:41.129Z,93.95
2019-05-18T05:02:48.540Z,94.40
2019-05-18T05:04:56.866Z,94.46
2019-05-18T05:07:04.463Z,94.66
2019-05-18T05:09:12.018Z,95.22
2019-05-18T05:11:19.347Z,94.62
2019-05-18T05:13:26.804Z,95.55
2019-05-18T05:15:34.475Z,95.09
2019-05-18T05:17:41.964Z,95.15
2019-05-18T05:19:49.446Z,94.69
2019-05-18T05:21:57.002Z,95.46
2019-05-18T05:24:04.729Z,94.79
2019-05-18T05:26:12.226Z,95.70
2019-05-18T05:28:19.723Z,93.72
2019-05-18T05:30:27.080Z,93.69
2019-05-18T05:32:34.540Z,94.93
2019-05-18T05:34:41.997Z,95.22
2019-05-18T05:36:49.505Z,95.64
2019-05-18T05:38:57.037Z,95.41
2019-05-18T05:41:05.325Z,95.49
2019-05-18T05:43:12.914Z,95.14
2019-05-18T05:45:20.421Z,94.41
2019-05-18T05:47:28.067Z,94.72
2019-05-18T05:49:35.465Z,94.94
2019-05-18T05:51:43.238Z,95.54
2019-05-18T05:53:50.777Z,95.86
2019-05-18T05:55:58.373Z,96.05
2019-05-18T05:58:06.094Z,95.55
2019-05-18T06:00:14.383Z,96.45
2019-05-18T06:02:22.037Z,95.24
2019-05-18T06:04:29.599Z,93.88
2019-05-18T06:06:37.134Z,92.05
2019-05-18T06:08:45.423Z,90.40
2019-05-18T06:10:52.889Z,94.35
2019-05-18T06:13:00.390Z,91.39
2019-05-18T06:15:10.157Z,90.70
2019-05-18T06:17:17.570Z,89.34
2019-05-18T06:19:25.150Z,90.24
2019-05-18T06:21:32.713Z,90.34
2019-05-18T06:23:40.318Z,91.63
2019-05-18T06:25:47.824Z,92.46
2019-05-18T06:27:55.383Z,92.51
2019-05-18T06:30:03.222Z,90.01
2019-05-18T06:32:10.691Z,89.75
2019-05-18T06:34:18.185Z,89.80
2019-05-18T06:36:25.728Z,90.25
2019-05-18T06:38:33.210Z,90.12
2019-05-18T06:40:41.797Z,89.75
2019-05-18T06:42:49.290Z,90.85
2019-05-18T06:44:56.715Z,92.72
2019-05-18T06:47:04.576Z,91.91
2019-05-18T06:49:12.034Z,90.94
2019-05-18T06:51:19.620Z,90.79
2019-05-18T06:53:27.291Z,91.16
2019-05-18T06:55:36.164Z,91.71
2019-05-18T06:57:45.091Z,91.44
2019-05-18T06:59:53.233Z,91.23
2019-05-18T07:02:00.937Z,92.99
2019-05-18T07:04:08.494Z,93.65
2019-05-18T07:06:16.162Z,91.49
2019-05-18T07:08:24.061Z,91.01
2019-05-18T07:10:32.498Z,90.18
2019-05-18T07:12:40.609Z,92.51
2019-05-18T07:14:48.537Z,94.23
2019-05-18T07:16:56.193Z,92.21
2019-05-18T07:19:03.746Z,94.01
2019-05-18T07:21:21.830Z,91.17
2019-05-18T07:23:20.799Z,91.24
2019-05-18T07:25:28.859Z,90.76
2019-05-18T07:27:36.653Z,91.40
2019-05-18T07:29:44.201Z,91.72
2019-05-18T07:31:51.976Z,94.47
2019-05-18T07:33:59.418Z,95.60
2019-05-18T07:36:07.026Z,96.24
2019-05-18T07:38:14.829Z,96.02
2019-05-18T07:40:22.728Z,94.71
2019-05-18T07:42:30.312Z,94.24
2019-05-18T07:44:38.020Z,94.02
2019-05-18T07:46:46.687Z,96.01
2019-05-18T07:48:54.470Z,97.01
2019-05-18T07:51:02.047Z,98.11
2019-05-18T07:53:10.607Z,98.04
2019-05-18T07:55:18.451Z,98.51
2019-05-18T07:57:26.222Z,98.43
2019-05-18T07:59:33.768Z,98.65
2019-05-18T08:01:41.507Z,98.60
2019-05-18T08:03:49.128Z,99.21
2019-05-18T08:05:56.709Z,99.21
2019-05-18T08:08:04.406Z,99.25
2019-05-18T08:10:12.720Z,99.18
2019-05-18T08:12:20.517Z,99.10
2019-05-18T08:14:28.185Z,99.11
2019-05-18T08:16:36.033Z,99.30
2019-05-18T08:18:43.594Z,99.19
2019-05-18T08:20:51.560Z,99.19
2019-05-18T08:22:59.049Z,99.10
2019-05-18T08:25:07.267Z,97.86
2019-05-18T08:27:15.068Z,96.18
2019-05-18T08:29:22.881Z,95.99
2019-05-18T08:31:30.916Z,95.76
2019-05-18T08:33:39.334Z,94.47
2019-05-18T08:35:47.533Z,94.43
2019-05-18T08:37:55.911Z,93.00
2019-05-18T08:40:03.482Z,95.03
2019-05-18T08:42:11.131Z,95.21
2019-05-18T08:44:18.821Z,96.07
2019-05-18T08:46:26.780Z,96.20
2019-05-18T08:48:34.531Z,96.77
2019-05-18T08:50:42.347Z,94.97
2019-05-18T08:52:50.065Z,94.02
2019-05-18T08:54:57.729Z,97.02
2019-05-18T08:57:05.249Z,96.78
2019-05-18T08:59:13.724Z,95.37
2019-05-18T09:01:21.351Z,96.71
2019-05-18T09:03:28.989Z,97.14
2019-05-18T09:05:36.688Z,98.22
2019-05-18T09:07:44.544Z,98.57
2019-05-18T09:09:52.308Z,98.76
2019-05-18T09:12:00.018Z,98.02
2019-05-18T09:14:07.719Z,98.98
2019-05-18T09:16:15.658Z,98.93
2019-05-18T09:18:23.258Z,98.86
2019-05-18T09:20:31.942Z,98.20
2019-05-18T09:22:39.978Z,97.73
2019-05-18T09:24:47.705Z,97.74
2019-05-18T09:26:55.397Z,97.40
2019-05-18T09:29:02.966Z,97.87
2019-05-18T09:31:10.464Z,96.54
2019-05-18T09:33:18.024Z,96.85
2019-05-18T09:35:25.898Z,96.44
2019-05-18T09:37:33.925Z,96.38
2019-05-18T09:39:41.886Z,96.25
2019-05-18T09:41:49.956Z,96.37
2019-05-18T09:43:57.796Z,96.33
2019-05-18T09:46:05.811Z,95.98
2019-05-18T09:48:13.576Z,94.97
2019-05-18T09:50:21.630Z,95.13
2019-05-18T09:52:44.214Z,94.99
2019-05-18T09:54:38.502Z,94.78
2019-05-18T09:56:46.049Z,95.08
2019-05-18T09:58:53.681Z,96.00
2019-05-18T10:01:01.612Z,95.01
2019-05-18T10:03:09.256Z,90.44
2019-05-18T10:05:17.033Z,92.79
2019-05-18T10:07:24.715Z,91.32
2019-05-18T10:09:38.797Z,91.32
2019-05-18T10:11:42.036Z,91.17
2019-05-18T10:13:49.718Z,94.33
2019-05-18T10:15:57.375Z,93.15
2019-05-18T10:18:04.911Z,91.48
2019-05-18T10:20:13.286Z,93.88
2019-05-18T10:22:20.881Z,93.45
2019-05-18T10:24:28.406Z,93.22
2019-05-18T10:26:36.056Z,94.81
2019-05-18T10:28:43.676Z,95.28
2019-05-18T10:30:51.297Z,91.26
2019-05-18T10:32:59.030Z,92.88
2019-05-18T10:35:07.407Z,91.90
2019-05-18T10:37:15.193Z,89.23
2019-05-18T10:39:22.753Z,90.08
2019-05-18T10:41:30.424Z,90.33
2019-05-18T10:43:38.003Z,90.62
2019-05-18T10:45:45.616Z,91.78
2019-05-18T10:47:53.095Z,90.11
2019-05-18T10:50:01.002Z,88.38
2019-05-18T10:52:08.612Z,88.24
2019-05-18T10:54:16.124Z,89.04
2019-05-18T10:56:24.851Z,87.14
2019-05-18T10:58:32.502Z,88.16
2019-05-18T11:00:40.066Z,88.77
2019-05-18T11:02:47.904Z,87.08
2019-05-18T11:04:55.547Z,89.06
2019-05-18T11:07:04.243Z,86.53
2019-05-18T11:09:12.092Z,89.04
2019-05-18T11:11:19.730Z,88.09
2019-05-18T11:13:27.516Z,83.68
2019-05-18T11:15:35.284Z,83.89
2019-05-18T11:17:43.091Z,86.67
2019-05-18T11:19:50.640Z,83.98
2019-05-18T11:21:58.404Z,86.97
2019-05-18T11:24:06.410Z,86.83
2019-05-18T11:26:15.313Z,84.30
2019-05-18T11:28:23.111Z,83.96
2019-05-18T11:30:31.007Z,83.90
2019-05-18T11:32:38.942Z,82.70
2019-05-18T11:34:46.982Z,80.42
2019-05-18T11:36:54.745Z,83.60
2019-05-18T11:39:02.592Z,83.79
2019-05-18T11:41:10.278Z,83.53
2019-05-18T11:43:17.803Z,82.74
2019-05-18T11:45:25.959Z,82.64
2019-05-18T11:47:33.609Z,81.63
2019-05-18T11:49:41.624Z,84.11
2019-05-18T11:51:49.299Z,84.11
2019-05-18T11:53:58.567Z,82.27
2019-05-18T11:56:06.773Z,81.94
2019-05-18T11:58:14.701Z,83.62
2019-05-18T12:00:23.784Z,82.94
2019-05-18T12:02:31.412Z,83.43
2019-05-18T12:04:38.997Z,82.93
2019-05-18T12:06:46.792Z,80.09
2019-05-18T12:08:54.256Z,81.68
2019-05-18T12:11:02.073Z,79.51
2019-05-18T12:13:09.810Z,79.69
2019-05-18T12:15:18.178Z,76.24
2019-05-18T12:17:26.096Z,77.96
2019-05-18T12:19:33.643Z,76.22
2019-05-18T12:21:41.113Z,78.23
2019-05-18T12:23:48.719Z,78.80
2019-05-18T12:25:56.465Z,79.54
2019-05-18T12:28:04.125Z,78.17
2019-05-18T12:30:13.024Z,75.09
2019-05-18T12:32:20.547Z,76.05
2019-05-18T12:34:28.060Z,76.64
2019-05-18T12:36:35.578Z,74.29
2019-05-18T12:38:43.144Z,75.15
2019-05-18T12:40:50.822Z,74.67
2019-05-18T12:42:58.688Z,74.02
2019-05-18T12:45:08.316Z,74.53
2019-05-18T12:47:16.337Z,73.15
2019-05-18T12:49:24.049Z,74.48
2019-05-18T12:51:31.992Z,72.07
2019-05-18T12:53:39.526Z,73.38
2019-05-18T12:55:47.144Z,72.55
2019-05-18T12:57:54.733Z,74.42
2019-05-18T13:00:02.677Z,71.30
2019-05-18T13:02:10.435Z,72.12
2019-05-18T13:04:18.220Z,71.09
2019-05-18T13:06:25.884Z,71.36
2019-05-18T13:08:33.404Z,72.71
2019-05-18T13:10:40.857Z,71.57
2019-05-18T13:12:48.440Z,68.36
2019-05-18T13:14:55.926Z,70.40
2019-05-18T13:17:03.734Z,69.51
2019-05-18T13:19:11.581Z,66.91
2019-05-18T13:21:19.059Z,69.45
2019-05-18T13:23:26.866Z,66.28
2019-05-18T13:25:34.510Z,67.95
2019-05-18T13:27:42.040Z,68.04
2019-05-18T13:29:49.566Z,69.35
2019-05-18T13:31:57.183Z,70.91
2019-05-18T13:34:04.934Z,70.43
2019-05-18T13:36:12.379Z,70.75
2019-05-18T13:38:21.262Z,69.12
2019-05-18T13:40:31.185Z,71.17
2019-05-18T13:42:54.335Z,69.85
2019-05-18T13:45:04.788Z,71.87
2019-05-18T13:47:13.238Z,68.73
2019-05-18T13:49:22.419Z,66.08
2019-05-18T13:51:30.338Z,66.36
2019-05-18T13:53:37.918Z,64.93
2019-05-18T13:55:45.645Z,65.24
2019-05-18T13:58:14.864Z,63.16
2019-05-18T14:00:25.188Z,64.61
2019-05-18T14:02:32.685Z,65.45
2019-05-18T14:04:59.113Z,65.90
2019-05-18T14:07:06.888Z,67.73
2019-05-18T14:09:14.763Z,68.12
2019-05-18T14:11:22.500Z,66.25
2019-05-18T14:13:30.267Z,66.29
2019-05-18T14:15:38.107Z,67.63
2019-05-18T14:17:45.829Z,68.66
2019-05-18T14:19:53.806Z,66.54
2019-05-18T14:22:01.306Z,64.96
2019-05-18T14:24:08.857Z,65.34
2019-05-18T14:26:35.140Z,65.51
2019-05-18T14:28:42.830Z,65.96
2019-05-18T14:30:51.836Z,67.67
2019-05-18T14:32:59.551Z,69.41
2019-05-18T14:35:08.147Z,65.84
2019-05-18T14:37:15.958Z,67.34
2019-05-18T14:39:24.305Z,65.63
2019-05-18T14:41:31.907Z,66.85
2019-05-18T14:43:39.838Z,65.79
2019-05-18T14:45:49.457Z,66.04
2019-05-18T14:47:56.650Z,64.97
2019-05-18T14:50:04.999Z,65.89
2019-05-18T14:52:12.535Z,65.41
2019-05-18T14:54:24.989Z,67.63
2019-05-18T14:56:29.673Z,66.63
2019-05-18T14:58:37.251Z,62.16
2019-05-18T15:00:45.050Z,62.03
2019-05-18T15:02:53.018Z,64.14
2019-05-18T15:05:00.673Z,63.40
2019-05-18T15:07:08.470Z,65.83
2019-05-18T15:09:16.056Z,63.15
2019-05-18T15:11:24.038Z,65.08
2019-05-18T15:13:31.800Z,61.89
2019-05-18T15:15:39.474Z,65.67
2019-05-18T15:17:46.961Z,61.32
2019-05-18T15:19:54.430Z,61.17
2019-05-18T15:22:02.153Z,64.16
2019-05-18T15:24:10.052Z,64.57
2019-05-18T15:26:17.713Z,66.40
2019-05-18T15:28:25.453Z,61.91
2019-05-18T15:30:33.248Z,64.98
2019-05-18T15:32:40.893Z,65.96
2019-05-18T15:34:48.420Z,64.75
2019-05-18T15:36:56.487Z,63.68
2019-05-18T15:39:06.123Z,64.17
2019-05-18T15:41:14.402Z,62.95
2019-05-18T15:43:22.695Z,65.63
2019-05-18T15:45:31.148Z,65.55
2019-05-18T15:47:39.931Z,65.76
2019-05-18T15:49:48.278Z,64.02
2019-05-18T15:51:56.070Z,66.32
2019-05-18T15:54:04.261Z,65.21
2019-05-18T15:56:12.955Z,63.61
2019-05-18T15:58:21.392Z,64.58
2019-05-18T16:00:29.729Z,65.68
2019-05-18T16:02:38.420Z,63.19
2019-05-18T16:04:46.397Z,64.02
2019-05-18T16:06:54.785Z,63.79
2019-05-18T16:09:02.842Z,63.55
2019-05-18T16:11:10.645Z,64.28
2019-05-18T16:13:18.641Z,64.60
2019-05-18T16:15:27.080Z,63.52
2019-05-18T16:17:39.342Z,64.31
2019-05-18T16:19:44.817Z,65.39
2019-05-18T16:21:52.957Z,64.36
2019-05-18T16:24:00.830Z,67.93
2019-05-18T16:26:20.737Z,66.39
2019-05-18T16:28:18.757Z,66.38
2019-05-18T16:30:27.371Z,65.59
2019-05-18T16:32:36.368Z,65.98
2019-05-18T16:34:44.645Z,67.62
2019-05-18T16:36:52.814Z,66.57
2019-05-18T16:39:00.934Z,67.42
2019-05-18T16:41:09.544Z,67.03
2019-05-18T16:43:17.361Z,66.83
2019-05-18T16:45:26.137Z,66.24
2019-05-18T16:47:34.215Z,67.63
2019-05-18T16:49:42.071Z,67.70
2019-05-18T16:51:50.551Z,68.75
2019-05-18T16:53:59.663Z,68.46
2019-05-18T16:56:08.194Z,70.78
2019-05-18T16:58:16.612Z,69.59
2019-05-18T17:00:28.034Z,70.72
2019-05-18T17:02:37.180Z,72.52
2019-05-18T17:04:45.333Z,71.07
2019-05-18T17:06:54.059Z,69.54
2019-05-18T17:09:02.204Z,70.13
2019-05-18T17:11:10.903Z,69.19
2019-05-18T17:13:19.247Z,69.66
2019-05-18T17:15:29.964Z,68.71
2019-05-18T17:17:37.716Z,71.91
2019-05-18T17:19:46.197Z,70.76
2019-05-18T17:21:54.892Z,71.02
2019-05-18T17:24:03.402Z,70.76
2019-05-18T17:26:11.950Z,71.53
2019-05-18T17:28:20.765Z,71.52
2019-05-18T17:30:29.847Z,71.44
2019-05-18T17:32:38.793Z,73.36
2019-05-18T17:34:48.168Z,71.59
2019-05-18T17:36:56.788Z,73.31
2019-05-18T17:39:07.449Z,73.61
2019-05-18T17:41:16.148Z,73.22
2019-05-18T17:43:24.464Z,73.54
2019-05-18T17:45:32.671Z,74.02
2019-05-18T17:47:41.180Z,72.59
2019-05-18T17:49:49.593Z,74.22
2019-05-18T17:51:57.799Z,75.16
2019-05-18T17:54:06.561Z,75.93
2019-05-18T17:56:14.839Z,75.52
2019-05-18T17:58:23.300Z,75.88
2019-05-18T18:00:31.341Z,76.04
2019-05-18T18:02:39.727Z,75.82
2019-05-18T18:04:54.191Z,76.53
2019-05-18T18:07:01.568Z,75.58
2019-05-18T18:09:10.636Z,75.11
2019-05-18T18:11:19.748Z,75.38
2019-05-18T18:13:28.221Z,75.29
2019-05-18T18:15:37.056Z,75.71
2019-05-18T18:17:45.524Z,75.04
2019-05-18T18:19:54.643Z,75.53
2019-05-18T18:22:02.398Z,76.23
2019-05-18T18:24:10.938Z,75.24
2019-05-18T18:26:19.694Z,75.36
2019-05-18T18:28:27.784Z,75.09
2019-05-18T18:30:36.255Z,75.11
2019-05-18T18:32:45.367Z,75.19
2019-05-18T18:34:53.553Z,76.02
2019-05-18T18:37:01.700Z,75.92
2019-05-18T18:39:11.371Z,76.02
2019-05-18T18:41:19.851Z,76.43
2019-05-18T18:43:28.184Z,76.90
2019-05-18T18:45:37.093Z,76.78
2019-05-18T18:47:45.550Z,77.47
2019-05-18T18:49:53.817Z,77.92
2019-05-18T18:52:02.273Z,78.90
2019-05-18T18:54:12.611Z,78.16
2019-05-18T18:56:19.996Z,79.88
2019-05-18T18:58:27.821Z,80.64
2019-05-18T19:00:38.101Z,80.13
2019-05-18T19:02:49.004Z,80.16
2019-05-18T19:04:57.519Z,80.40
2019-05-18T19:07:09.007Z,81.20
2019-05-18T19:09:16.142Z,80.97
2019-05-18T19:11:24.484Z,82.45
2019-05-18T19:13:34.789Z,82.51
2019-05-18T19:15:42.973Z,81.85
2019-05-18T19:17:51.458Z,83.52
2019-05-18T19:19:59.820Z,83.61
2019-05-18T19:22:08.191Z,83.84
2019-05-18T19:24:16.783Z,84.22
2019-05-18T19:26:24.408Z,84.00
2019-05-18T19:28:33.780Z,83.59
2019-05-18T19:30:42.781Z,84.25
2019-05-18T19:32:50.778Z,84.85
2019-05-18T19:35:00.805Z,84.72
2019-05-18T19:37:09.445Z,85.19
2019-05-18T19:39:17.369Z,84.95
2019-05-18T19:41:25.206Z,84.93
2019-05-18T19:43:32.861Z,85.25
2019-05-18T19:45:40.470Z,85.05
2019-05-18T19:47:48.250Z,84.71
2019-05-18T19:49:55.850Z,85.25
2019-05-18T19:52:03.850Z,85.69
2019-05-18T19:54:11.616Z,86.45
2019-05-18T19:56:19.508Z,86.85
2019-05-18T19:58:27.616Z,87.21
2019-05-18T20:00:36.020Z,87.44
2019-05-18T20:02:43.744Z,87.49
2019-05-18T20:05:06.550Z,87.17
2019-05-18T20:07:01.262Z,86.81
2019-05-18T20:09:09.657Z,87.01
2019-05-18T20:11:18.459Z,87.74
2019-05-18T20:13:26.031Z,87.24
2019-05-18T20:15:33.760Z,87.35
2019-05-18T20:17:41.619Z,86.70
2019-05-18T20:19:49.152Z,87.10
2019-05-18T20:21:56.635Z,86.26
2019-05-18T20:24:04.281Z,87.10
2019-05-18T20:26:11.895Z,87.32
2019-05-18T20:28:23.647Z,87.17
2019-05-18T20:30:29.384Z,86.40
2019-05-18T20:32:37.196Z,87.92
2019-05-18T20:34:44.872Z,88.23
2019-05-18T20:36:52.376Z,88.19
2019-05-18T20:39:00.040Z,88.18
2019-05-18T20:41:07.706Z,88.13
2019-05-18T20:43:15.352Z,87.73
2019-05-18T20:45:22.964Z,87.94
2019-05-18T20:47:30.537Z,87.84
2019-05-18T20:49:38.071Z,88.48
2019-05-18T20:51:45.745Z,89.11
2019-05-18T20:53:53.230Z,88.56
2019-05-18T20:56:01.332Z,88.57
2019-05-18T20:58:09.169Z,88.33
2019-05-18T21:00:18.568Z,88.48
2019-05-18T21:02:25.981Z,88.48
2019-05-18T21:04:33.568Z,87.58
2019-05-18T21:06:41.180Z,87.72
2019-05-18T21:08:48.713Z,87.25
2019-05-18T21:10:57.392Z,87.88
2019-05-18T21:13:04.964Z,86.91
2019-05-18T21:15:13.405Z,86.56
2019-05-18T21:17:21.001Z,87.01
2019-05-18T21:19:28.563Z,86.99
2019-05-18T21:21:36.230Z,86.95
2019-05-18T21:23:43.895Z,86.75
2019-05-18T21:25:51.468Z,87.52
2019-05-18T21:27:58.953Z,87.33
2019-05-18T21:30:06.974Z,86.99
2019-05-18T21:32:15.082Z,86.97
2019-05-18T21:34:22.685Z,87.43
2019-05-18T21:36:30.214Z,88.00
2019-05-18T21:38:37.795Z,87.28
2019-05-18T21:40:45.366Z,87.22
2019-05-18T21:42:53.206Z,86.91
2019-05-18T21:45:01.210Z,86.67
2019-05-18T21:47:08.932Z,86.90
2019-05-18T21:49:16.891Z,87.00
2019-05-18T21:51:24.989Z,86.66
2019-05-18T21:53:32.669Z,86.95
2019-05-18T21:55:40.156Z,86.57
2019-05-18T21:57:48.359Z,87.07
2019-05-18T21:59:56.155Z,86.33
2019-05-18T22:02:04.099Z,86.31
2019-05-18T22:04:12.026Z,86.62
2019-05-18T22:06:19.612Z,86.15
2019-05-18T22:08:27.129Z,86.44
2019-05-18T22:10:34.614Z,86.15
2019-05-18T22:12:42.216Z,86.53
2019-05-18T22:14:49.951Z,86.71
2019-05-18T22:16:57.505Z,86.12
2019-05-18T22:19:05.709Z,85.92
2019-05-18T22:21:13.497Z,85.71
2019-05-18T22:23:21.504Z,85.45
2019-05-18T22:25:29.007Z,85.55
2019-05-18T22:27:36.773Z,84.93
2019-05-18T22:29:44.445Z,85.55
2019-05-18T22:31:51.967Z,85.64
2019-05-18T22:33:59.463Z,85.55
2019-05-18T22:36:06.953Z,85.29
2019-05-18T22:38:14.495Z,85.46
2019-05-18T22:40:22.372Z,84.62
2019-05-18T22:42:29.896Z,85.07
2019-05-18T22:44:37.477Z,85.04
2019-05-18T22:46:44.976Z,84.52
2019-05-18T22:48:52.475Z,84.72
2019-05-18T22:50:59.932Z,84.04
2019-05-18T22:53:07.577Z,84.14
2019-05-18T22:55:15.353Z,84.47
2019-05-18T22:57:22.773Z,84.86
2019-05-18T22:59:30.202Z,84.84
2019-05-18T23:01:37.667Z,84.42
2019-05-18T23:03:45.574Z,84.36
2019-05-18T23:05:53.106Z,84.42
2019-05-18T23:08:00.583Z,84.52
2019-05-18T23:10:08.467Z,84.57
2019-05-18T23:12:15.910Z,84.47
2019-05-18T23:14:23.435Z,84.45
2019-05-18T23:16:30.899Z,84.42
2019-05-18T23:18:39.382Z,84.73
2019-05-18T23:20:46.869Z,84.76
2019-05-18T23:22:54.532Z,84.40
2019-05-18T23:25:02.036Z,84.19
2019-05-18T23:27:09.748Z,84.47
2019-05-18T23:29:17.177Z,84.31
2019-05-18T23:31:24.681Z,84.60
2019-05-18T23:33:32.230Z,85.08
2019-05-18T23:35:39.676Z,85.18
2019-05-18T23:37:47.187Z,85.04
2019-05-18T23:39:54.696Z,84.99
2019-05-18T23:42:02.356Z,84.75
2019-05-18T23:44:09.870Z,85.02
2019-05-18T23:46:17.321Z,85.30
2019-05-18T23:48:25.668Z,84.98
2019-05-18T23:50:33.583Z,85.18
2019-05-18T23:52:41.009Z,85.55
2019-05-18T23:54:48.413Z,86.00
2019-05-18T23:56:55.884Z,85.22
2019-05-18T23:59:03.386Z,85.05
